sensor_id;sensor_type;location;lat;lon;timestamp;P1;durP1;ratioP1;P2;durP2;ratioP2
24407;SDS011;12542;50.924;4.516;2023-10-09T00:00:56;11.50;;;5.50;;
24407;SDS011;12542;50.924;4.516;2023-10-09T00:03:45;13.85;;;6.05;;
24407;SDS011;12542;50.924;4.516;2023-10-09T00:06:23;13.57;;;5.38;;
24407;SDS011;12542;50.924;4.516;2023-10-09T00:08:56;13.57;;;6.25;;
24407;SDS011;12542;50.924;4.516;2023-10-09T00:11:22;13.23;;;6.05;;
24407;SDS011;12542;50.924;4.516;2023-10-09T00:13:51;11.80;;;5.50;;
24407;SDS011;12542;50.924;4.516;2023-10-09T00:16:23;12.38;;;5.80;;
24407;SDS011;12542;50.924;4.516;2023-10-09T00:19:03;9.75;;;5.15;;
24407;SDS011;12542;50.924;4.516;2023-10-09T00:21:46;11.48;;;5.75;;
24407;SDS011;12542;50.924;4.516;2023-10-09T00:24:13;12.07;;;5.07;;
24407;SDS011;12542;50.924;4.516;2023-10-09T00:26:45;11.07;;;5.38;;
24407;SDS011;12542;50.924;4.516;2023-10-09T00:29:14;12.65;;;5.70;;
24407;SDS011;12542;50.924;4.516;2023-10-09T00:31:50;8.30;;;5.10;;
24407;SDS011;12542;50.924;4.516;2023-10-09T00:34:21;15.70;;;5.75;;
24407;SDS011;12542;50.924;4.516;2023-10-09T00:36:47;10.73;;;5.85;;
24407;SDS011;12542;50.924;4.516;2023-10-09T00:39:17;11.02;;;6.18;;
24407;SDS011;12542;50.924;4.516;2023-10-09T00:41:58;10.80;;;5.47;;
24407;SDS011;12542;50.924;4.516;2023-10-09T00:44:26;9.80;;;5.15;;
24407;SDS011;12542;50.924;4.516;2023-10-09T00:47:03;12.25;;;5.88;;
24407;SDS011;12542;50.924;4.516;2023-10-09T00:49:36;11.88;;;5.55;;
24407;SDS011;12542;50.924;4.516;2023-10-09T00:52:07;11.43;;;5.88;;
24407;SDS011;12542;50.924;4.516;2023-10-09T00:54:43;13.35;;;6.30;;
24407;SDS011;12542;50.924;4.516;2023-10-09T00:57:16;14.32;;;6.03;;
24407;SDS011;12542;50.924;4.516;2023-10-09T00:59:43;13.45;;;6.00;;
24407;SDS011;12542;50.924;4.516;2023-10-09T01:02:13;10.98;;;5.55;;
24407;SDS011;12542;50.924;4.516;2023-10-09T01:04:44;12.18;;;5.93;;
24407;SDS011;12542;50.924;4.516;2023-10-09T01:07:12;14.40;;;6.88;;
24407;SDS011;12542;50.924;4.516;2023-10-09T01:09:42;13.20;;;6.28;;
24407;SDS011;12542;50.924;4.516;2023-10-09T01:12:09;13.65;;;5.93;;
24407;SDS011;12542;50.924;4.516;2023-10-09T01:14:45;11.23;;;5.70;;
24407;SDS011;12542;50.924;4.516;2023-10-09T01:17:17;13.82;;;6.63;;
24407;SDS011;12542;50.924;4.516;2023-10-09T01:19:54;13.43;;;6.00;;
24407;SDS011;12542;50.924;4.516;2023-10-09T01:22:22;14.63;;;6.78;;
24407;SDS011;12542;50.924;4.516;2023-10-09T01:24:48;13.82;;;5.90;;
24407;SDS011;12542;50.924;4.516;2023-10-09T01:27:16;11.18;;;6.15;;
24407;SDS011;12542;50.924;4.516;2023-10-09T01:29:42;10.70;;;5.55;;
24407;SDS011;12542;50.924;4.516;2023-10-09T01:32:08;15.07;;;6.03;;
24407;SDS011;12542;50.924;4.516;2023-10-09T01:34:41;11.27;;;5.68;;
24407;SDS011;12542;50.924;4.516;2023-10-09T01:37:19;12.20;;;6.43;;
24407;SDS011;12542;50.924;4.516;2023-10-09T01:39:54;15.43;;;5.93;;
24407;SDS011;12542;50.924;4.516;2023-10-09T01:42:44;9.82;;;5.95;;
24407;SDS011;12542;50.924;4.516;2023-10-09T01:45:11;11.05;;;6.45;;
24407;SDS011;12542;50.924;4.516;2023-10-09T01:47:37;9.82;;;5.30;;
24407;SDS011;12542;50.924;4.516;2023-10-09T01:50:04;16.35;;;6.40;;
24407;SDS011;12542;50.924;4.516;2023-10-09T01:52:43;14.65;;;6.25;;
24407;SDS011;12542;50.924;4.516;2023-10-09T01:55:08;11.70;;;6.15;;
24407;SDS011;12542;50.924;4.516;2023-10-09T01:57:53;10.52;;;5.57;;
24407;SDS011;12542;50.924;4.516;2023-10-09T02:00:19;11.50;;;5.80;;
24407;SDS011;12542;50.924;4.516;2023-10-09T02:02:49;11.77;;;5.68;;
24407;SDS011;12542;50.924;4.516;2023-10-09T02:05:15;12.30;;;6.13;;
24407;SDS011;12542;50.924;4.516;2023-10-09T02:07:42;12.05;;;5.28;;
24407;SDS011;12542;50.924;4.516;2023-10-09T02:10:21;14.43;;;6.45;;
24407;SDS011;12542;50.924;4.516;2023-10-09T02:12:59;11.93;;;5.53;;
24407;SDS011;12542;50.924;4.516;2023-10-09T02:15:31;17.15;;;5.95;;
24407;SDS011;12542;50.924;4.516;2023-10-09T02:18:20;10.43;;;5.30;;
24407;SDS011;12542;50.924;4.516;2023-10-09T02:20:47;12.45;;;5.70;;
24407;SDS011;12542;50.924;4.516;2023-10-09T02:23:29;11.57;;;5.82;;
24407;SDS011;12542;50.924;4.516;2023-10-09T02:26:04;10.73;;;6.07;;
24407;SDS011;12542;50.924;4.516;2023-10-09T02:28:33;12.60;;;6.28;;
24407;SDS011;12542;50.924;4.516;2023-10-09T02:31:00;13.43;;;6.53;;
24407;SDS011;12542;50.924;4.516;2023-10-09T02:33:46;10.55;;;5.90;;
24407;SDS011;12542;50.924;4.516;2023-10-09T02:36:15;11.45;;;6.30;;
24407;SDS011;12542;50.924;4.516;2023-10-09T02:38:41;17.23;;;6.75;;
24407;SDS011;12542;50.924;4.516;2023-10-09T02:41:08;12.98;;;6.25;;
24407;SDS011;12542;50.924;4.516;2023-10-09T02:43:37;16.08;;;6.80;;
24407;SDS011;12542;50.924;4.516;2023-10-09T02:46:16;14.65;;;6.47;;
24407;SDS011;12542;50.924;4.516;2023-10-09T02:48:52;15.07;;;5.90;;
24407;SDS011;12542;50.924;4.516;2023-10-09T02:51:21;19.88;;;6.40;;
24407;SDS011;12542;50.924;4.516;2023-10-09T02:53:54;12.13;;;5.88;;
24407;SDS011;12542;50.924;4.516;2023-10-09T02:56:23;13.00;;;6.00;;
24407;SDS011;12542;50.924;4.516;2023-10-09T02:58:52;11.68;;;5.78;;
24407;SDS011;12542;50.924;4.516;2023-10-09T03:01:30;11.60;;;5.75;;
24407;SDS011;12542;50.924;4.516;2023-10-09T03:03:57;12.93;;;5.68;;
24407;SDS011;12542;50.924;4.516;2023-10-09T03:06:26;11.82;;;5.90;;
24407;SDS011;12542;50.924;4.516;2023-10-09T03:08:53;11.45;;;5.82;;
24407;SDS011;12542;50.924;4.516;2023-10-09T03:11:20;12.73;;;5.88;;
24407;SDS011;12542;50.924;4.516;2023-10-09T03:13:45;15.38;;;7.38;;
24407;SDS011;12542;50.924;4.516;2023-10-09T03:16:15;12.23;;;6.25;;
24407;SDS011;12542;50.924;4.516;2023-10-09T03:18:50;14.35;;;6.00;;
24407;SDS011;12542;50.924;4.516;2023-10-09T03:21:18;12.85;;;6.75;;
24407;SDS011;12542;50.924;4.516;2023-10-09T03:23:47;13.52;;;6.28;;
24407;SDS011;12542;50.924;4.516;2023-10-09T03:26:17;13.40;;;5.93;;
24407;SDS011;12542;50.924;4.516;2023-10-09T03:28:43;14.52;;;6.57;;
24407;SDS011;12542;50.924;4.516;2023-10-09T03:31:10;13.18;;;6.93;;
24407;SDS011;12542;50.924;4.516;2023-10-09T03:33:37;15.68;;;6.95;;
24407;SDS011;12542;50.924;4.516;2023-10-09T03:36:03;14.75;;;6.82;;
24407;SDS011;12542;50.924;4.516;2023-10-09T03:38:34;10.75;;;6.22;;
24407;SDS011;12542;50.924;4.516;2023-10-09T03:41:06;11.18;;;6.22;;
24407;SDS011;12542;50.924;4.516;2023-10-09T03:43:35;14.30;;;7.20;;
24407;SDS011;12542;50.924;4.516;2023-10-09T03:46:06;14.02;;;6.93;;
24407;SDS011;12542;50.924;4.516;2023-10-09T03:48:58;15.23;;;6.97;;
24407;SDS011;12542;50.924;4.516;2023-10-09T03:51:29;14.40;;;7.05;;
24407;SDS011;12542;50.924;4.516;2023-10-09T03:53:55;15.88;;;7.22;;
24407;SDS011;12542;50.924;4.516;2023-10-09T03:56:21;11.93;;;6.28;;
24407;SDS011;12542;50.924;4.516;2023-10-09T03:58:47;12.65;;;6.28;;
24407;SDS011;12542;50.924;4.516;2023-10-09T04:01:16;15.45;;;7.18;;
24407;SDS011;12542;50.924;4.516;2023-10-09T04:03:56;14.85;;;7.20;;
24407;SDS011;12542;50.924;4.516;2023-10-09T04:06:26;14.63;;;7.18;;
24407;SDS011;12542;50.924;4.516;2023-10-09T04:08:54;14.02;;;7.00;;
24407;SDS011;12542;50.924;4.516;2023-10-09T04:11:20;14.85;;;6.95;;
24407;SDS011;12542;50.924;4.516;2023-10-09T04:13:48;18.08;;;7.93;;
24407;SDS011;12542;50.924;4.516;2023-10-09T04:16:21;14.82;;;7.63;;
24407;SDS011;12542;50.924;4.516;2023-10-09T04:21:25;11.77;;;6.78;;
24407;SDS011;12542;50.924;4.516;2023-10-09T04:24:02;15.15;;;7.38;;
24407;SDS011;12542;50.924;4.516;2023-10-09T04:26:48;14.55;;;7.63;;
24407;SDS011;12542;50.924;4.516;2023-10-09T04:29:20;17.17;;;7.70;;
24407;SDS011;12542;50.924;4.516;2023-10-09T04:32:04;17.90;;;8.38;;
24407;SDS011;12542;50.924;4.516;2023-10-09T04:34:33;17.15;;;8.32;;
24407;SDS011;12542;50.924;4.516;2023-10-09T04:37:13;12.90;;;7.55;;
24407;SDS011;12542;50.924;4.516;2023-10-09T04:39:40;14.00;;;7.75;;
24407;SDS011;12542;50.924;4.516;2023-10-09T04:42:12;15.90;;;7.70;;
24407;SDS011;12542;50.924;4.516;2023-10-09T04:45:01;17.80;;;7.68;;
24407;SDS011;12542;50.924;4.516;2023-10-09T04:47:27;19.08;;;8.15;;
24407;SDS011;12542;50.924;4.516;2023-10-09T04:50:08;15.65;;;7.68;;
24407;SDS011;12542;50.924;4.516;2023-10-09T04:53:03;19.30;;;8.02;;
24407;SDS011;12542;50.924;4.516;2023-10-09T04:55:41;20.02;;;8.40;;
24407;SDS011;12542;50.924;4.516;2023-10-09T04:58:19;18.30;;;8.18;;
24407;SDS011;12542;50.924;4.516;2023-10-09T05:00:54;16.48;;;8.85;;
24407;SDS011;12542;50.924;4.516;2023-10-09T05:03:23;13.18;;;7.53;;
24407;SDS011;12542;50.924;4.516;2023-10-09T05:05:51;16.85;;;9.05;;
24407;SDS011;12542;50.924;4.516;2023-10-09T05:08:24;21.23;;;9.55;;
24407;SDS011;12542;50.924;4.516;2023-10-09T05:13:23;19.88;;;8.70;;
24407;SDS011;12542;50.924;4.516;2023-10-09T05:16:21;15.68;;;8.88;;
24407;SDS011;12542;50.924;4.516;2023-10-09T05:18:51;18.05;;;8.88;;
24407;SDS011;12542;50.924;4.516;2023-10-09T05:21:36;16.88;;;8.75;;
24407;SDS011;12542;50.924;4.516;2023-10-09T05:24:07;17.30;;;9.40;;
24407;SDS011;12542;50.924;4.516;2023-10-09T05:26:40;16.38;;;9.05;;
24407;SDS011;12542;50.924;4.516;2023-10-09T05:34:30;15.73;;;8.88;;
24407;SDS011;12542;50.924;4.516;2023-10-09T05:37:02;18.90;;;8.95;;
24407;SDS011;12542;50.924;4.516;2023-10-09T05:39:47;17.98;;;9.52;;
24407;SDS011;12542;50.924;4.516;2023-10-09T05:42:32;19.88;;;9.68;;
24407;SDS011;12542;50.924;4.516;2023-10-09T05:50:50;21.25;;;9.10;;
24407;SDS011;12542;50.924;4.516;2023-10-09T05:53:34;21.02;;;8.93;;
24407;SDS011;12542;50.924;4.516;2023-10-09T05:58:55;18.90;;;9.38;;
24407;SDS011;12542;50.924;4.516;2023-10-09T06:01:40;24.70;;;9.32;;
24407;SDS011;12542;50.924;4.516;2023-10-09T06:04:23;20.15;;;9.77;;
24407;SDS011;12542;50.924;4.516;2023-10-09T06:07:08;21.67;;;9.93;;
24407;SDS011;12542;50.924;4.516;2023-10-09T06:09:38;18.40;;;9.50;;
24407;SDS011;12542;50.924;4.516;2023-10-09T06:12:18;24.52;;;10.18;;
24407;SDS011;12542;50.924;4.516;2023-10-09T06:15:14;25.17;;;9.35;;
24407;SDS011;12542;50.924;4.516;2023-10-09T06:18:06;18.85;;;9.45;;
24407;SDS011;12542;50.924;4.516;2023-10-09T06:20:55;26.90;;;8.98;;
24407;SDS011;12542;50.924;4.516;2023-10-09T06:23:39;18.38;;;9.05;;
24407;SDS011;12542;50.924;4.516;2023-10-09T06:26:23;19.60;;;9.73;;
24407;SDS011;12542;50.924;4.516;2023-10-09T06:28:49;18.60;;;9.32;;
24407;SDS011;12542;50.924;4.516;2023-10-09T06:31:35;20.45;;;10.48;;
24407;SDS011;12542;50.924;4.516;2023-10-09T06:34:19;19.60;;;9.00;;
24407;SDS011;12542;50.924;4.516;2023-10-09T06:36:50;20.65;;;9.77;;
24407;SDS011;12542;50.924;4.516;2023-10-09T06:39:18;21.30;;;10.27;;
24407;SDS011;12542;50.924;4.516;2023-10-09T06:42:03;14.85;;;8.95;;
24407;SDS011;12542;50.924;4.516;2023-10-09T06:44:54;20.33;;;10.35;;
24407;SDS011;12542;50.924;4.516;2023-10-09T06:47:20;19.60;;;9.40;;
24407;SDS011;12542;50.924;4.516;2023-10-09T06:49:49;19.40;;;9.13;;
24407;SDS011;12542;50.924;4.516;2023-10-09T06:52:34;16.85;;;9.93;;
24407;SDS011;12542;50.924;4.516;2023-10-09T06:55:18;18.40;;;9.38;;
24407;SDS011;12542;50.924;4.516;2023-10-09T06:57:57;22.33;;;9.73;;
24407;SDS011;12542;50.924;4.516;2023-10-09T07:00:26;20.52;;;9.77;;
24407;SDS011;12542;50.924;4.516;2023-10-09T07:03:25;20.42;;;10.63;;
24407;SDS011;12542;50.924;4.516;2023-10-09T07:06:17;13.88;;;8.65;;
24407;SDS011;12542;50.924;4.516;2023-10-09T07:08:55;16.63;;;9.60;;
24407;SDS011;12542;50.924;4.516;2023-10-09T07:11:33;18.38;;;9.73;;
24407;SDS011;12542;50.924;4.516;2023-10-09T07:14:14;18.00;;;8.82;;
24407;SDS011;12542;50.924;4.516;2023-10-09T07:19:26;18.10;;;9.25;;
24407;SDS011;12542;50.924;4.516;2023-10-09T07:22:10;17.85;;;9.02;;
24407;SDS011;12542;50.924;4.516;2023-10-09T07:24:52;16.88;;;8.98;;
24407;SDS011;12542;50.924;4.516;2023-10-09T07:27:26;21.95;;;9.13;;
24407;SDS011;12542;50.924;4.516;2023-10-09T07:30:14;16.65;;;9.57;;
24407;SDS011;12542;50.924;4.516;2023-10-09T07:33:01;21.30;;;10.35;;
24407;SDS011;12542;50.924;4.516;2023-10-09T07:35:37;24.38;;;10.65;;
24407;SDS011;12542;50.924;4.516;2023-10-09T07:38:20;22.92;;;8.98;;
24407;SDS011;12542;50.924;4.516;2023-10-09T07:43:32;21.10;;;9.18;;
24407;SDS011;12542;50.924;4.516;2023-10-09T07:46:04;16.63;;;8.95;;
24407;SDS011;12542;50.924;4.516;2023-10-09T07:48:54;18.60;;;8.57;;
24407;SDS011;12542;50.924;4.516;2023-10-09T07:51:34;19.70;;;10.27;;
24407;SDS011;12542;50.924;4.516;2023-10-09T07:54:01;24.38;;;9.82;;
24407;SDS011;12542;50.924;4.516;2023-10-09T07:59:10;15.02;;;7.82;;
24407;SDS011;12542;50.924;4.516;2023-10-09T08:01:43;17.42;;;9.18;;
24407;SDS011;12542;50.924;4.516;2023-10-09T08:04:24;19.17;;;9.40;;
24407;SDS011;12542;50.924;4.516;2023-10-09T08:07:03;23.00;;;9.45;;
24407;SDS011;12542;50.924;4.516;2023-10-09T08:09:32;20.20;;;9.95;;
24407;SDS011;12542;50.924;4.516;2023-10-09T08:12:14;23.38;;;10.27;;
24407;SDS011;12542;50.924;4.516;2023-10-09T08:15:01;16.80;;;9.68;;
24407;SDS011;12542;50.924;4.516;2023-10-09T08:17:58;21.55;;;9.57;;
24407;SDS011;12542;50.924;4.516;2023-10-09T08:20:38;19.80;;;9.80;;
24407;SDS011;12542;50.924;4.516;2023-10-09T08:23:31;17.85;;;9.38;;
24407;SDS011;12542;50.924;4.516;2023-10-09T08:26:13;20.90;;;10.02;;
24407;SDS011;12542;50.924;4.516;2023-10-09T08:28:44;20.38;;;9.60;;
24407;SDS011;12542;50.924;4.516;2023-10-09T08:31:14;22.30;;;10.00;;
24407;SDS011;12542;50.924;4.516;2023-10-09T08:33:47;16.92;;;9.65;;
24407;SDS011;12542;50.924;4.516;2023-10-09T08:36:23;21.65;;;10.05;;
24407;SDS011;12542;50.924;4.516;2023-10-09T08:39:08;19.90;;;9.32;;
24407;SDS011;12542;50.924;4.516;2023-10-09T08:41:42;17.52;;;8.40;;
24407;SDS011;12542;50.924;4.516;2023-10-09T08:44:08;20.45;;;9.13;;
24407;SDS011;12542;50.924;4.516;2023-10-09T08:46:37;21.52;;;10.15;;
24407;SDS011;12542;50.924;4.516;2023-10-09T08:49:04;21.33;;;9.02;;
24407;SDS011;12542;50.924;4.516;2023-10-09T08:51:33;15.75;;;8.80;;
24407;SDS011;12542;50.924;4.516;2023-10-09T08:54:00;16.52;;;8.88;;
24407;SDS011;12542;50.924;4.516;2023-10-09T08:56:26;20.77;;;9.20;;
24407;SDS011;12542;50.924;4.516;2023-10-09T08:58:55;20.83;;;8.90;;
24407;SDS011;12542;50.924;4.516;2023-10-09T09:01:22;15.60;;;8.38;;
24407;SDS011;12542;50.924;4.516;2023-10-09T09:03:51;15.57;;;8.27;;
24407;SDS011;12542;50.924;4.516;2023-10-09T09:06:20;18.50;;;9.45;;
24407;SDS011;12542;50.924;4.516;2023-10-09T09:08:48;18.83;;;9.20;;
24407;SDS011;12542;50.924;4.516;2023-10-09T09:11:19;16.35;;;8.80;;
24407;SDS011;12542;50.924;4.516;2023-10-09T09:21:30;16.85;;;8.80;;
24407;SDS011;12542;50.924;4.516;2023-10-09T09:24:06;16.83;;;9.00;;
24407;SDS011;12542;50.924;4.516;2023-10-09T09:26:42;18.85;;;8.60;;
24407;SDS011;12542;50.924;4.516;2023-10-09T09:29:12;17.58;;;8.82;;
24407;SDS011;12542;50.924;4.516;2023-10-09T09:31:56;21.33;;;8.82;;
24407;SDS011;12542;50.924;4.516;2023-10-09T09:34:47;20.63;;;9.57;;
24407;SDS011;12542;50.924;4.516;2023-10-09T09:37:30;17.33;;;8.98;;
24407;SDS011;12542;50.924;4.516;2023-10-09T09:40:11;22.42;;;9.82;;
24407;SDS011;12542;50.924;4.516;2023-10-09T09:42:52;19.88;;;9.18;;
24407;SDS011;12542;50.924;4.516;2023-10-09T09:45:37;20.65;;;8.77;;
24407;SDS011;12542;50.924;4.516;2023-10-09T09:48:11;17.98;;;8.63;;
24407;SDS011;12542;50.924;4.516;2023-10-09T09:50:41;22.17;;;9.18;;
24407;SDS011;12542;50.924;4.516;2023-10-09T09:53:14;17.02;;;8.75;;
24407;SDS011;12542;50.924;4.516;2023-10-09T09:55:52;19.35;;;9.30;;
24407;SDS011;12542;50.924;4.516;2023-10-09T09:58:22;21.08;;;9.77;;
24407;SDS011;12542;50.924;4.516;2023-10-09T10:00:50;18.05;;;9.52;;
24407;SDS011;12542;50.924;4.516;2023-10-09T10:03:31;19.20;;;9.70;;
24407;SDS011;12542;50.924;4.516;2023-10-09T10:06:02;22.52;;;8.48;;
24407;SDS011;12542;50.924;4.516;2023-10-09T10:08:35;21.25;;;8.77;;
24407;SDS011;12542;50.924;4.516;2023-10-09T10:11:06;22.85;;;9.25;;
24407;SDS011;12542;50.924;4.516;2023-10-09T10:21:43;18.75;;;9.30;;
24407;SDS011;12542;50.924;4.516;2023-10-09T10:35:16;16.17;;;8.45;;
24407;SDS011;12542;50.924;4.516;2023-10-09T10:37:57;22.05;;;9.10;;
24407;SDS011;12542;50.924;4.516;2023-10-09T10:40:36;19.98;;;8.82;;
24407;SDS011;12542;50.924;4.516;2023-10-09T10:43:15;20.15;;;8.55;;
24407;SDS011;12542;50.924;4.516;2023-10-09T10:46:02;18.33;;;9.23;;
24407;SDS011;12542;50.924;4.516;2023-10-09T10:48:49;15.73;;;8.10;;
24407;SDS011;12542;50.924;4.516;2023-10-09T10:51:24;13.32;;;8.57;;
24407;SDS011;12542;50.924;4.516;2023-10-09T10:54:08;14.32;;;8.10;;
24407;SDS011;12542;50.924;4.516;2023-10-09T10:56:53;15.40;;;7.38;;
24407;SDS011;12542;50.924;4.516;2023-10-09T10:59:23;22.13;;;8.85;;
24407;SDS011;12542;50.924;4.516;2023-10-09T11:01:52;20.20;;;8.95;;
24407;SDS011;12542;50.924;4.516;2023-10-09T11:04:19;16.35;;;9.65;;
24407;SDS011;12542;50.924;4.516;2023-10-09T11:06:54;19.95;;;9.35;;
24407;SDS011;12542;50.924;4.516;2023-10-09T11:12:28;16.58;;;8.70;;
24407;SDS011;12542;50.924;4.516;2023-10-09T11:15:04;16.23;;;8.60;;
24407;SDS011;12542;50.924;4.516;2023-10-09T11:20:36;15.93;;;8.23;;
24407;SDS011;12542;50.924;4.516;2023-10-09T11:23:03;17.27;;;9.02;;
24407;SDS011;12542;50.924;4.516;2023-10-09T11:25:33;12.70;;;7.63;;
24407;SDS011;12542;50.924;4.516;2023-10-09T11:28:00;15.70;;;8.13;;
24407;SDS011;12542;50.924;4.516;2023-10-09T11:30:46;15.82;;;8.80;;
24407;SDS011;12542;50.924;4.516;2023-10-09T11:33:12;17.05;;;8.18;;
24407;SDS011;12542;50.924;4.516;2023-10-09T11:35:40;18.77;;;8.48;;
24407;SDS011;12542;50.924;4.516;2023-10-09T11:38:09;16.35;;;8.07;;
24407;SDS011;12542;50.924;4.516;2023-10-09T11:40:46;15.65;;;8.13;;
24407;SDS011;12542;50.924;4.516;2023-10-09T11:43:15;18.20;;;7.90;;
24407;SDS011;12542;50.924;4.516;2023-10-09T11:45:41;15.32;;;8.23;;
24407;SDS011;12542;50.924;4.516;2023-10-09T11:48:20;16.80;;;7.38;;
24407;SDS011;12542;50.924;4.516;2023-10-09T11:51:11;15.50;;;7.53;;
24407;SDS011;12542;50.924;4.516;2023-10-09T11:53:44;18.67;;;7.65;;
24407;SDS011;12542;50.924;4.516;2023-10-09T11:56:21;15.10;;;7.43;;
24407;SDS011;12542;50.924;4.516;2023-10-09T11:58:47;14.90;;;8.00;;
24407;SDS011;12542;50.924;4.516;2023-10-09T12:01:15;25.55;;;7.93;;
24407;SDS011;12542;50.924;4.516;2023-10-09T12:03:43;14.73;;;7.22;;
24407;SDS011;12542;50.924;4.516;2023-10-09T12:06:14;15.77;;;7.07;;
24407;SDS011;12542;50.924;4.516;2023-10-09T12:08:44;15.00;;;7.78;;
24407;SDS011;12542;50.924;4.516;2023-10-09T12:11:14;18.92;;;7.45;;
24407;SDS011;12542;50.924;4.516;2023-10-09T12:13:47;16.00;;;6.72;;
24407;SDS011;12542;50.924;4.516;2023-10-09T12:16:21;14.60;;;6.82;;
24407;SDS011;12542;50.924;4.516;2023-10-09T12:18:47;12.55;;;6.53;;
24407;SDS011;12542;50.924;4.516;2023-10-09T12:21:18;15.68;;;7.47;;
24407;SDS011;12542;50.924;4.516;2023-10-09T12:23:45;12.18;;;6.68;;
24407;SDS011;12542;50.924;4.516;2023-10-09T12:26:12;15.25;;;7.60;;
24407;SDS011;12542;50.924;4.516;2023-10-09T12:28:41;19.02;;;8.13;;
24407;SDS011;12542;50.924;4.516;2023-10-09T12:31:14;15.98;;;8.38;;
24407;SDS011;12542;50.924;4.516;2023-10-09T12:33:40;16.50;;;7.75;;
24407;SDS011;12542;50.924;4.516;2023-10-09T12:36:10;14.18;;;7.32;;
24407;SDS011;12542;50.924;4.516;2023-10-09T12:38:42;18.00;;;6.85;;
24407;SDS011;12542;50.924;4.516;2023-10-09T12:41:11;17.42;;;7.70;;
24407;SDS011;12542;50.924;4.516;2023-10-09T12:43:53;12.43;;;7.50;;
24407;SDS011;12542;50.924;4.516;2023-10-09T12:46:20;13.88;;;7.50;;
24407;SDS011;12542;50.924;4.516;2023-10-09T12:48:50;19.95;;;7.38;;
24407;SDS011;12542;50.924;4.516;2023-10-09T12:51:22;17.67;;;8.52;;
24407;SDS011;12542;50.924;4.516;2023-10-09T12:53:55;12.07;;;7.90;;
24407;SDS011;12542;50.924;4.516;2023-10-09T12:56:28;15.57;;;8.00;;
24407;SDS011;12542;50.924;4.516;2023-10-09T12:59:02;13.15;;;7.93;;
24407;SDS011;12542;50.924;4.516;2023-10-09T13:01:30;21.77;;;9.07;;
24407;SDS011;12542;50.924;4.516;2023-10-09T13:04:07;16.70;;;9.05;;
24407;SDS011;12542;50.924;4.516;2023-10-09T13:06:39;21.35;;;8.57;;
24407;SDS011;12542;50.924;4.516;2023-10-09T13:09:09;18.60;;;8.10;;
24407;SDS011;12542;50.924;4.516;2023-10-09T13:11:41;19.15;;;8.27;;
24407;SDS011;12542;50.924;4.516;2023-10-09T13:14:08;14.98;;;7.38;;
24407;SDS011;12542;50.924;4.516;2023-10-09T13:16:47;15.65;;;8.40;;
24407;SDS011;12542;50.924;4.516;2023-10-09T13:19:15;17.88;;;8.90;;
24407;SDS011;12542;50.924;4.516;2023-10-09T13:21:42;15.95;;;7.97;;
24407;SDS011;12542;50.924;4.516;2023-10-09T13:24:09;16.50;;;8.38;;
24407;SDS011;12542;50.924;4.516;2023-10-09T13:26:41;19.05;;;8.73;;
24407;SDS011;12542;50.924;4.516;2023-10-09T13:29:10;15.27;;;8.18;;
24407;SDS011;12542;50.924;4.516;2023-10-09T13:31:36;17.83;;;8.50;;
24407;SDS011;12542;50.924;4.516;2023-10-09T13:34:03;16.85;;;8.43;;
24407;SDS011;12542;50.924;4.516;2023-10-09T13:36:35;19.45;;;9.15;;
24407;SDS011;12542;50.924;4.516;2023-10-09T13:41:47;18.27;;;8.57;;
24407;SDS011;12542;50.924;4.516;2023-10-09T13:44:17;17.95;;;9.20;;
24407;SDS011;12542;50.924;4.516;2023-10-09T13:46:42;20.50;;;9.70;;
24407;SDS011;12542;50.924;4.516;2023-10-09T13:49:09;17.17;;;9.95;;
24407;SDS011;12542;50.924;4.516;2023-10-09T13:51:41;23.67;;;10.50;;
24407;SDS011;12542;50.924;4.516;2023-10-09T13:54:12;25.10;;;10.32;;
24407;SDS011;12542;50.924;4.516;2023-10-09T13:56:46;18.35;;;9.60;;
24407;SDS011;12542;50.924;4.516;2023-10-09T13:59:14;17.05;;;9.57;;
24407;SDS011;12542;50.924;4.516;2023-10-09T14:01:42;19.83;;;9.00;;
24407;SDS011;12542;50.924;4.516;2023-10-09T14:04:12;19.45;;;9.32;;
24407;SDS011;12542;50.924;4.516;2023-10-09T14:06:43;20.92;;;9.40;;
24407;SDS011;12542;50.924;4.516;2023-10-09T14:09:09;19.15;;;9.70;;
24407;SDS011;12542;50.924;4.516;2023-10-09T14:11:36;19.83;;;10.45;;
24407;SDS011;12542;50.924;4.516;2023-10-09T14:14:09;19.70;;;9.35;;
24407;SDS011;12542;50.924;4.516;2023-10-09T14:16:37;17.35;;;9.02;;
24407;SDS011;12542;50.924;4.516;2023-10-09T14:19:07;18.05;;;9.20;;
24407;SDS011;12542;50.924;4.516;2023-10-09T14:21:38;16.58;;;8.73;;
24407;SDS011;12542;50.924;4.516;2023-10-09T14:24:05;19.50;;;9.63;;
24407;SDS011;12542;50.924;4.516;2023-10-09T14:26:41;19.42;;;9.30;;
24407;SDS011;12542;50.924;4.516;2023-10-09T14:29:07;20.17;;;9.77;;
24407;SDS011;12542;50.924;4.516;2023-10-09T14:31:33;18.20;;;9.32;;
24407;SDS011;12542;50.924;4.516;2023-10-09T14:34:04;20.83;;;10.07;;
24407;SDS011;12542;50.924;4.516;2023-10-09T14:36:30;22.05;;;9.70;;
24407;SDS011;12542;50.924;4.516;2023-10-09T14:38:59;18.02;;;10.00;;
24407;SDS011;12542;50.924;4.516;2023-10-09T14:41:26;21.70;;;10.43;;
24407;SDS011;12542;50.924;4.516;2023-10-09T14:43:53;22.25;;;10.05;;
24407;SDS011;12542;50.924;4.516;2023-10-09T14:46:24;17.27;;;10.18;;
24407;SDS011;12542;50.924;4.516;2023-10-09T14:48:54;18.33;;;9.90;;
24407;SDS011;12542;50.924;4.516;2023-10-09T14:51:21;20.33;;;9.55;;
24407;SDS011;12542;50.924;4.516;2023-10-09T14:53:56;20.60;;;10.05;;
24407;SDS011;12542;50.924;4.516;2023-10-09T14:56:28;18.58;;;10.07;;
24407;SDS011;12542;50.924;4.516;2023-10-09T14:58:57;18.58;;;9.85;;
24407;SDS011;12542;50.924;4.516;2023-10-09T15:01:26;22.67;;;9.90;;
24407;SDS011;12542;50.924;4.516;2023-10-09T15:03:59;19.83;;;9.38;;
24407;SDS011;12542;50.924;4.516;2023-10-09T15:06:28;17.35;;;8.80;;
24407;SDS011;12542;50.924;4.516;2023-10-09T15:08:55;19.70;;;8.82;;
24407;SDS011;12542;50.924;4.516;2023-10-09T15:11:24;18.25;;;8.50;;
24407;SDS011;12542;50.924;4.516;2023-10-09T15:13:54;19.75;;;9.65;;
24407;SDS011;12542;50.924;4.516;2023-10-09T15:16:23;23.17;;;10.00;;
24407;SDS011;12542;50.924;4.516;2023-10-09T15:18:51;23.25;;;9.32;;
24407;SDS011;12542;50.924;4.516;2023-10-09T15:21:19;19.27;;;9.82;;
24407;SDS011;12542;50.924;4.516;2023-10-09T15:23:51;16.80;;;9.25;;
24407;SDS011;12542;50.924;4.516;2023-10-09T15:26:23;16.90;;;8.95;;
24407;SDS011;12542;50.924;4.516;2023-10-09T15:28:50;20.15;;;9.70;;
24407;SDS011;12542;50.924;4.516;2023-10-09T15:31:17;17.88;;;9.23;;
24407;SDS011;12542;50.924;4.516;2023-10-09T15:33:45;14.88;;;9.43;;
24407;SDS011;12542;50.924;4.516;2023-10-09T15:38:39;19.08;;;10.27;;
24407;SDS011;12542;50.924;4.516;2023-10-09T15:41:05;19.02;;;9.57;;
24407;SDS011;12542;50.924;4.516;2023-10-09T15:43:31;20.17;;;9.48;;
24407;SDS011;12542;50.924;4.516;2023-10-09T15:45:59;18.17;;;9.20;;
24407;SDS011;12542;50.924;4.516;2023-10-09T15:48:24;16.83;;;9.57;;
24407;SDS011;12542;50.924;4.516;2023-10-09T15:50:50;18.85;;;9.00;;
24407;SDS011;12542;50.924;4.516;2023-10-09T15:53:17;18.60;;;9.38;;
24407;SDS011;12542;50.924;4.516;2023-10-09T15:55:44;16.50;;;8.55;;
24407;SDS011;12542;50.924;4.516;2023-10-09T15:58:10;15.57;;;9.00;;
24407;SDS011;12542;50.924;4.516;2023-10-09T16:00:36;19.27;;;9.65;;
24407;SDS011;12542;50.924;4.516;2023-10-09T16:03:03;17.23;;;9.10;;
24407;SDS011;12542;50.924;4.516;2023-10-09T16:05:29;17.83;;;9.15;;
24407;SDS011;12542;50.924;4.516;2023-10-09T16:08:01;20.65;;;9.63;;
24407;SDS011;12542;50.924;4.516;2023-10-09T16:10:28;15.32;;;9.20;;
24407;SDS011;12542;50.924;4.516;2023-10-09T16:12:56;16.33;;;9.18;;